WetterOnline ( https://www.wetteronline.de )

Wetter aktuell Grevesmühlen

Aktuelles Wetter: Boltenhagen (17m)

6-stündlich | Neueste Meldungen
Ortszeit Temperatur Wetter
Sa, 21.05. 2:00 12.3° C leichter Regen
Fr, 20.05. 20:00 14.1° C bedeckt
Fr, 20.05. 14:00 15.9° C fast wolkenlos
Fr, 20.05. 8:00 13.3° C bewölkt
Fr, 20.05. 2:00 16.2° C wolkig
Do, 19.05. 20:00 17.7° C Regen
Do, 19.05. 14:00 27.3° C bedeckt
Do, 19.05. 8:00 19.7° C wolkig
Ortszeit Temperatur Wetter
Sa, 21.05. 2:30 12.5° C wolkig
Sa, 21.05. 2:20 12.5° C wolkig
Sa, 21.05. 2:10 12.5° C bewölkt
Sa, 21.05. 2:00 12.3° C leichter Regen
Sa, 21.05. 1:50 12.3° C leichter Regen
Sa, 21.05. 1:40 12.3° C leichter Regen
Sa, 21.05. 1:30 12.1° C Regen
Sa, 21.05. 1:00 13.7° C leichter Regen
Sa, 21.05. 0:30 13.9° C bewölkt
Sa, 21.05. 0:00 13.4° C leichter Regen
Fr, 20.05. 23:30 13.7° C leichter Regen
Ortszeit Relative Feuchte Sichtweite
Sa, 21.05. 2:00 92% 16 km
Fr, 20.05. 20:00 90% 30 km
Fr, 20.05. 14:00 74% 40 km
Fr, 20.05. 8:00 87% 30 km
Fr, 20.05. 2:00 97% 2.7 km
Do, 19.05. 20:00 95% 1.8 km
Do, 19.05. 14:00 46% 60 km
Do, 19.05. 8:00 69% 45 km
Ortszeit Relative Feuchte Sichtweite
Sa, 21.05. 2:30 93% 24 km
Sa, 21.05. 2:20 93% -
Sa, 21.05. 2:10 94% -
Sa, 21.05. 2:00 92% 16 km
Sa, 21.05. 1:50 92% -
Sa, 21.05. 1:40 94% -
Sa, 21.05. 1:30 96% 3.1 km
Sa, 21.05. 1:00 95% 9 km
Sa, 21.05. 0:30 94% 17 km
Sa, 21.05. 0:00 96% 8 km
Fr, 20.05. 23:30 96% 4.7 km
Ortszeit Niederschlagsmenge Niederschlagsart
Sa, 21.05. 2:00 11 l/m2 in 6 Std. Regen
Fr, 20.05. 20:00 0.0 l/m2 in 12 Std. -
Fr, 20.05. 14:00 0.0 l/m2 in 6 Std. -
Fr, 20.05. 8:00 8 l/m2 in 12 Std. Sprühregen
Fr, 20.05. 2:00 8 l/m2 in 6 Std. Regen
Do, 19.05. 20:00 2 l/m2 in 12 Std. Regen
Do, 19.05. 14:00 0.0 l/m2 in 6 Std. -
Do, 19.05. 8:00 0.0 l/m2 in 12 Std. -
Ortszeit Niederschlagsmenge Niederschlagsart
Sa, 21.05. 2:30 0.1 l/m2 in 1 Std. Schneeregen
Sa, 21.05. 2:20 keine Meldung -
Sa, 21.05. 2:10 keine Meldung -
Sa, 21.05. 2:00 4.1 l/m2 in 1 Std. Regen
Sa, 21.05. 1:50 keine Meldung -
Sa, 21.05. 1:40 keine Meldung -
Sa, 21.05. 1:30 3.4 l/m2 in 1 Std. -
Sa, 21.05. 1:00 0.5 l/m2 in 1 Std. Regen
Sa, 21.05. 0:30 0.1 l/m2 in 1 Std. Schneeregen
Sa, 21.05. 0:00 4.8 l/m2 in 1 Std. Regen
Fr, 20.05. 23:30 4.6 l/m2 in 1 Std. -
Ortszeit Stärke Spitze Richtung
km/h Bft. km/h Grad Sektor
Sa, 21.05. 2:00 40 6 76 310° NW
Fr, 20.05. 20:00 26 4 31 60° NO
Fr, 20.05. 14:00 14 3 36 340° N
Fr, 20.05. 8:00 24 4 43 270° W
Fr, 20.05. 2:00 18 3 68 250° W
Do, 19.05. 20:00 54 7 97 270° W
Do, 19.05. 14:00 18 3 32 190° S
Do, 19.05. 8:00 11 2 25 190° S
Ortszeit Stärke Spitze Richtung
km/h Bft. km/h Grad Sektor
Sa, 21.05. 2:30 32 5 50 280° W
Sa, 21.05. 2:20 32 5 - 280° W
Sa, 21.05. 2:10 31 5 - 290° W
Sa, 21.05. 2:00 40 6 76 310° NW
Sa, 21.05. 1:50 40 6 - 310° NW
Sa, 21.05. 1:40 41 6 - 310° NW
Sa, 21.05. 1:30 54 7 76 300° NW
Sa, 21.05. 1:00 9 2 48 320° NW
Sa, 21.05. 0:30 36 5 47 50° NO
Sa, 21.05. 0:00 37 5 48 30° NO
Fr, 20.05. 23:30 15 3 26 30° NO
Ortszeit Untergrenze Bedeckung Gattung
total tief tief mittel hoch
Sa, 21.05. 2:00 270 m 8/8 8/8 - - -
Fr, 20.05. 20:00 3600 m 8/8 8/8 - - -
Fr, 20.05. 14:00 5100 m 1/8 1/8 - - -
Fr, 20.05. 8:00 450 m 7/8 7/8 - - -
Fr, 20.05. 2:00 270 m 7/8 5/8 - - -
Do, 19.05. 20:00 240 m 8/8 7/8 - - -
Do, 19.05. 14:00 6300 m 8/8 8/8 - - -
Do, 19.05. 8:00 3300 m 6/8 3/8 - - -
Ortszeit Bedeckungsgrad in Achtel und Wolkenuntergrenze
Sa, 21.05. 2:30 4(270m) 5(690m)
Sa, 21.05. 2:20 4(270m) 5(690m)
Sa, 21.05. 2:10 7
Sa, 21.05. 2:00 1(270m) 3(1500m) 8(2100m)
Sa, 21.05. 1:50 1(270m) 3(1500m) 8(2100m)
Sa, 21.05. 1:40 8
Sa, 21.05. 1:30 6(120m) 7(270m) 7(390m)
Sa, 21.05. 1:00 2(240m) 6(420m) 8(600m)
Sa, 21.05. 0:30 1(120m) 7(660m)
Sa, 21.05. 0:00 1(120m) 7(270m) 7(420m)
Fr, 20.05. 23:30 5(360m) 7(1050m)
Ortszeit Luftdruck NN (hPa) Tendenz (hPa in 3 Std.)
Sa, 21.05. 2:00 1010 + 2,3
Fr, 20.05. 20:00 1012 - 4,0
Fr, 20.05. 14:00 1019 - 1,5
Fr, 20.05. 8:00 1020 + 1,7
Fr, 20.05. 2:00 1018 + 0,9
Do, 19.05. 20:00 1017 + 1,3
Do, 19.05. 14:00 1017 - 1,4
Do, 19.05. 8:00 1019 - 0,2
Ortszeit Luftdruck NN (hPa) Tendenz (hPa in 3 Std.)
Sa, 21.05. 2:30 1011 + 2,9
Sa, 21.05. 2:20 1011 keine Meldung
Sa, 21.05. 2:10 1010 keine Meldung
Sa, 21.05. 2:00 1010 + 2,3
Sa, 21.05. 1:50 1010 keine Meldung
Sa, 21.05. 1:40 1009 keine Meldung
Sa, 21.05. 1:30 1009 + 0,8
Sa, 21.05. 1:00 1006 - 2,9
Sa, 21.05. 0:30 1006 - 3,9
Sa, 21.05. 0:00 1007 - 3,8
Fr, 20.05. 23:30 1008 - 3,7
Ortszeit Schneehöhe (cm)
Sa, 21.05. 2:00 0
Fr, 20.05. 20:00 0
Fr, 20.05. 14:00 0
Fr, 20.05. 8:00 0
Fr, 20.05. 2:00 0
Do, 19.05. 20:00 0
Do, 19.05. 14:00 0
Do, 19.05. 8:00 0
Ortszeit Schneehöhe (cm)
Sa, 21.05. 2:30 0
Sa, 21.05. 2:20 0
Sa, 21.05. 2:10 0
Sa, 21.05. 2:00 0
Sa, 21.05. 1:50 0
Sa, 21.05. 1:40 0
Sa, 21.05. 1:30 0
Sa, 21.05. 1:00 0
Sa, 21.05. 0:30 0
Sa, 21.05. 0:00 0
Fr, 20.05. 23:30 0
Link zu dieser Seite / Seite empfehlen

Das Wetter in ...